createdAt,value
2022-11-04T00:00:06.563Z,53.61
2022-11-04T00:02:33.259Z,53.77
2022-11-04T00:05:00.031Z,53.34
2022-11-04T00:07:45.434Z,53.62
2022-11-04T00:10:12.198Z,53.63
2022-11-04T00:12:38.825Z,53.45
2022-11-04T00:15:24.703Z,53.65
2022-11-04T00:17:51.434Z,53.33
2022-11-04T00:20:36.573Z,53.57
2022-11-04T00:23:21.830Z,53.75
2022-11-04T00:26:26.946Z,53.39
2022-11-04T00:28:54.291Z,53.07
2022-11-04T00:31:39.327Z,53.65
2022-11-04T00:34:06.084Z,53.13
2022-11-04T00:36:32.735Z,53.53
2022-11-04T00:38:59.451Z,53.10
2022-11-04T00:41:26.524Z,53.09
2022-11-04T00:44:02.451Z,53.45
2022-11-04T00:46:31.448Z,53.47
2022-11-04T00:48:58.765Z,52.95
2022-11-04T00:51:25.725Z,53.34
2022-11-04T00:53:52.612Z,53.13
2022-11-04T00:56:19.293Z,52.91
2022-11-04T00:58:46.082Z,52.86
2022-11-04T01:01:17.994Z,53.28
2022-11-04T01:03:45.837Z,53.17
2022-11-04T01:06:12.471Z,52.96
2022-11-04T01:08:40.262Z,52.92
2022-11-04T01:11:08.817Z,52.92
2022-11-04T01:13:36.285Z,53.14
2022-11-04T01:16:06.313Z,52.87
2022-11-04T01:18:33.350Z,52.85
2022-11-04T01:21:04.464Z,52.74
2022-11-04T01:23:31.463Z,53.12
2022-11-04T01:25:58.170Z,52.62
2022-11-04T01:28:24.870Z,52.72
2022-11-04T01:30:51.606Z,52.95
2022-11-04T01:33:18.517Z,52.88
2022-11-04T01:35:45.165Z,52.95
2022-11-04T01:38:12.076Z,52.84
2022-11-04T01:40:40.835Z,52.60
2022-11-04T01:43:19.049Z,52.65
2022-11-04T01:45:49.714Z,52.81
2022-11-04T01:48:22.009Z,52.41
2022-11-04T01:50:49.897Z,52.40
2022-11-04T01:53:19.146Z,52.39
2022-11-04T01:55:52.142Z,52.71
2022-11-04T01:58:20.775Z,52.28
2022-11-04T02:00:47.441Z,52.42
2022-11-04T02:03:18.833Z,52.77
2022-11-04T02:05:46.467Z,52.68
2022-11-04T02:08:14.458Z,52.39
2022-11-04T02:10:42.312Z,52.45
2022-11-04T02:13:09.295Z,52.53
2022-11-04T02:15:55.953Z,52.47
2022-11-04T02:19:00.309Z,52.77
2022-11-04T02:22:02.969Z,52.76
2022-11-04T02:24:29.602Z,52.30
2022-11-04T02:27:11.919Z,52.83
2022-11-04T02:29:45.514Z,52.64
2022-11-04T02:32:38.186Z,52.60
2022-11-04T02:35:25.610Z,52.57
2022-11-04T02:38:16.225Z,52.53
2022-11-04T02:40:50.382Z,52.18
2022-11-04T02:43:26.223Z,52.41
2022-11-04T02:46:01.706Z,52.49
2022-11-04T02:49:15.826Z,52.31
2022-11-04T02:51:58.323Z,52.29
2022-11-04T02:55:02.266Z,52.53
2022-11-04T02:57:33.169Z,52.24
2022-11-04T03:00:06.542Z,52.32
2022-11-04T03:02:45.605Z,52.34
2022-11-04T03:05:22.402Z,52.16
2022-11-04T03:07:51.842Z,52.14
2022-11-04T03:10:24.255Z,52.51
2022-11-04T03:12:59.021Z,52.40
2022-11-04T03:15:29.295Z,52.16
2022-11-04T03:18:17.784Z,52.26
2022-11-04T03:20:46.698Z,51.98
2022-11-04T03:23:13.786Z,51.96
2022-11-04T03:25:44.571Z,52.31
2022-11-04T03:28:17.442Z,52.04
2022-11-04T03:30:46.955Z,52.36
2022-11-04T03:33:27.353Z,52.25
2022-11-04T03:35:54.210Z,52.03
2022-11-04T03:38:21.890Z,52.18
2022-11-04T03:40:48.988Z,52.04
2022-11-04T03:43:24.499Z,51.96
2022-11-04T03:45:51.491Z,52.29
2022-11-04T03:48:18.198Z,52.15
2022-11-04T03:50:49.846Z,52.03
2022-11-04T03:53:22.534Z,52.10
2022-11-04T03:56:08.223Z,52.16
2022-11-04T03:59:11.966Z,52.09
2022-11-04T04:01:54.378Z,52.34
2022-11-04T04:04:40.656Z,51.91
2022-11-04T04:07:12.925Z,51.86
2022-11-04T04:09:45.582Z,51.89
2022-11-04T04:12:26.055Z,52.23
2022-11-04T04:14:55.185Z,52.06
2022-11-04T04:17:26.370Z,51.83
2022-11-04T04:20:03.814Z,52.17
2022-11-04T04:22:34.507Z,52.01
2022-11-04T04:25:23.655Z,51.79
2022-11-04T04:27:51.674Z,52.10
2022-11-04T04:30:18.415Z,51.74
2022-11-04T04:33:04.970Z,51.81
2022-11-04T04:35:44.964Z,51.88
2022-11-04T04:38:33.650Z,52.16
2022-11-04T04:41:27.669Z,52.11
2022-11-04T04:44:13.042Z,52.11
2022-11-04T04:46:40.885Z,52.17
2022-11-04T04:49:09.347Z,52.06
2022-11-04T04:51:40.390Z,52.17
2022-11-04T04:54:07.769Z,52.05
2022-11-04T04:56:34.427Z,52.05
2022-11-04T04:59:01.186Z,52.00
2022-11-04T05:01:28.014Z,52.06
2022-11-04T05:03:55.821Z,52.27
2022-11-04T05:06:22.516Z,52.22
2022-11-04T05:08:49.227Z,52.39
2022-11-04T05:11:15.949Z,52.17
2022-11-04T05:13:42.658Z,52.24
2022-11-04T05:16:10.839Z,52.13
2022-11-04T05:18:37.905Z,52.06
2022-11-04T05:21:09.418Z,52.41
2022-11-04T05:23:36.382Z,52.46
2022-11-04T05:26:03.610Z,52.40
2022-11-04T05:28:30.458Z,52.30
2022-11-04T05:30:57.597Z,52.18
2022-11-04T05:33:24.343Z,52.31
2022-11-04T05:35:51.073Z,52.33
2022-11-04T05:38:17.764Z,52.68
2022-11-04T05:40:44.389Z,52.35
2022-11-04T05:43:11.451Z,52.44
2022-11-04T05:45:38.248Z,52.68
2022-11-04T05:48:05.608Z,52.34
2022-11-04T05:50:33.170Z,52.29
2022-11-04T05:53:00.806Z,52.94
2022-11-04T05:55:27.797Z,52.77
2022-11-04T05:57:54.779Z,52.77
2022-11-04T06:00:21.504Z,52.80
2022-11-04T06:02:48.301Z,52.71
2022-11-04T06:05:15.265Z,52.95
2022-11-04T06:07:41.905Z,52.73
2022-11-04T06:10:09.023Z,53.12
2022-11-04T06:12:35.747Z,52.75
2022-11-04T06:15:02.490Z,52.86
2022-11-04T06:17:29.164Z,52.84
2022-11-04T06:19:55.896Z,52.79
2022-11-04T06:22:22.706Z,52.73
2022-11-04T06:24:49.468Z,52.79
2022-11-04T06:27:16.222Z,52.79
2022-11-04T06:29:42.977Z,52.98
2022-11-04T06:32:12.440Z,52.91
2022-11-04T06:34:40.252Z,53.15
2022-11-04T06:37:07.759Z,52.95
2022-11-04T06:39:34.536Z,52.95
2022-11-04T06:42:02.925Z,52.96
2022-11-04T06:44:30.425Z,52.91
2022-11-04T06:46:57.327Z,53.01
2022-11-04T06:49:24.099Z,53.07
2022-11-04T06:51:51.992Z,53.11
2022-11-04T06:54:18.817Z,53.03
2022-11-04T06:56:45.558Z,53.47
2022-11-04T06:59:16.164Z,53.31
2022-11-04T07:01:44.012Z,53.45
2022-11-04T07:04:10.745Z,53.75
2022-11-04T07:06:47.664Z,53.75
2022-11-04T07:09:16.776Z,53.85
2022-11-04T07:11:44.506Z,54.24
2022-11-04T07:14:12.105Z,54.17
2022-11-04T07:16:39.126Z,54.54
2022-11-04T07:19:06.466Z,54.31
2022-11-04T07:21:33.171Z,54.46
2022-11-04T07:24:01.144Z,54.31
2022-11-04T07:26:27.854Z,54.35
2022-11-04T07:28:54.651Z,54.63
2022-11-04T07:31:22.338Z,54.46
2022-11-04T07:33:51.423Z,54.43
2022-11-04T07:36:19.053Z,54.48
2022-11-04T07:38:46.689Z,54.39
2022-11-04T07:41:14.959Z,54.78
2022-11-04T07:43:41.649Z,54.65
2022-11-04T07:46:12.861Z,54.84
2022-11-04T07:48:39.693Z,54.84
2022-11-04T07:51:07.730Z,55.00
2022-11-04T07:53:34.823Z,54.94
2022-11-04T07:56:11.607Z,55.13
2022-11-04T07:58:38.494Z,54.74
2022-11-04T08:01:08.371Z,55.08
2022-11-04T08:03:36.827Z,54.71
2022-11-04T08:06:05.463Z,54.72
2022-11-04T08:08:32.399Z,54.80
2022-11-04T08:11:10.396Z,55.18
2022-11-04T08:13:40.110Z,54.78
2022-11-04T08:16:09.997Z,54.62
2022-11-04T08:18:37.147Z,54.41
2022-11-04T08:21:04.836Z,54.69
2022-11-04T08:23:32.538Z,54.82
2022-11-04T08:25:59.546Z,54.92
2022-11-04T08:28:26.526Z,55.08
2022-11-04T08:31:11.785Z,54.56
2022-11-04T08:33:38.796Z,54.84
2022-11-04T08:36:09.342Z,54.51
2022-11-04T08:38:36.206Z,54.31
2022-11-04T08:41:05.018Z,53.69
2022-11-04T08:43:34.103Z,53.87
2022-11-04T08:46:00.931Z,53.82
2022-11-04T08:48:28.382Z,54.04
2022-11-04T08:50:58.907Z,53.73
2022-11-04T08:53:25.570Z,53.72
2022-11-04T08:55:52.307Z,53.37
2022-11-04T08:58:19.064Z,53.41
2022-11-04T09:00:45.766Z,53.55
2022-11-04T09:03:12.716Z,53.55
2022-11-04T09:05:44.936Z,53.48
2022-11-04T09:08:16.840Z,53.14
2022-11-04T09:10:45.493Z,53.54
2022-11-04T09:13:12.758Z,53.44
2022-11-04T09:15:39.831Z,53.30
2022-11-04T09:18:07.555Z,53.53
2022-11-04T09:20:38.455Z,53.51
2022-11-04T09:23:06.229Z,52.95
2022-11-04T09:25:33.220Z,52.90
2022-11-04T09:28:00.363Z,53.38
2022-11-04T09:30:27.508Z,53.26
2022-11-04T09:32:54.205Z,53.26
2022-11-04T09:35:20.881Z,52.65
2022-11-04T09:37:47.634Z,52.61
2022-11-04T09:40:17.405Z,53.07
2022-11-04T09:42:50.105Z,53.02
2022-11-04T09:45:23.144Z,52.59
2022-11-04T09:47:53.165Z,52.43
2022-11-04T09:50:25.637Z,52.35
2022-11-04T09:53:08.990Z,52.63
2022-11-04T09:55:42.151Z,52.70
2022-11-04T09:58:12.673Z,52.44
2022-11-04T10:00:39.380Z,52.16
2022-11-04T10:03:18.474Z,52.16
2022-11-04T10:06:19.362Z,52.50
2022-11-04T10:08:48.826Z,51.96
2022-11-04T10:11:32.044Z,52.20
2022-11-04T10:14:01.705Z,51.75
2022-11-04T10:16:50.110Z,52.11
2022-11-04T10:19:34.622Z,52.28
2022-11-04T10:22:05.141Z,52.22
2022-11-04T10:24:34.947Z,52.24
2022-11-04T10:27:05.955Z,51.45
2022-11-04T10:29:45.961Z,51.99
2022-11-04T10:32:24.426Z,51.93
2022-11-04T10:34:57.055Z,51.86
2022-11-04T10:37:25.638Z,52.32
2022-11-04T10:39:59.051Z,52.02
2022-11-04T10:42:25.792Z,51.81
2022-11-04T10:44:53.085Z,52.10
2022-11-04T10:47:40.003Z,51.79
2022-11-04T10:50:28.999Z,52.08
2022-11-04T10:53:17.949Z,52.08
2022-11-04T10:55:55.026Z,51.66
2022-11-04T10:58:35.596Z,51.84
2022-11-04T11:01:22.190Z,51.66
2022-11-04T11:03:49.031Z,51.25
2022-11-04T11:06:33.306Z,51.34
2022-11-04T11:09:13.199Z,51.88
2022-11-04T11:11:47.230Z,51.42
2022-11-04T11:14:20.236Z,51.73
2022-11-04T11:16:48.249Z,51.17
2022-11-04T11:19:20.620Z,51.30
2022-11-04T11:21:52.820Z,51.53
2022-11-04T11:24:27.316Z,51.41
2022-11-04T11:27:12.063Z,51.73
2022-11-04T11:29:42.605Z,51.26
2022-11-04T11:32:27.449Z,51.34
2022-11-04T11:34:54.242Z,51.47
2022-11-04T11:37:23.437Z,51.45
2022-11-04T11:39:50.755Z,51.75
2022-11-04T11:42:19.740Z,51.81
2022-11-04T11:45:00.147Z,51.76
2022-11-04T11:47:29.712Z,51.98
2022-11-04T11:50:07.058Z,51.72
2022-11-04T11:52:37.000Z,51.41
2022-11-04T11:55:30.387Z,51.63
2022-11-04T12:01:25.707Z,51.30
2022-11-04T12:10:18.202Z,51.88
2022-11-04T12:13:23.693Z,51.78
2022-11-04T12:15:56.969Z,52.13
2022-11-04T12:18:35.574Z,51.74
2022-11-04T12:21:21.148Z,51.84
2022-11-04T12:23:56.272Z,52.16
2022-11-04T12:26:51.598Z,52.01
2022-11-04T12:29:30.426Z,52.29
2022-11-04T12:32:04.631Z,52.50
2022-11-04T12:34:45.405Z,52.17
2022-11-04T12:37:31.967Z,52.34
2022-11-04T12:40:21.662Z,52.31
2022-11-04T12:42:57.596Z,52.20
2022-11-04T12:45:42.920Z,52.29
2022-11-04T12:48:35.273Z,52.66
2022-11-04T12:51:18.514Z,52.31
2022-11-04T12:54:08.947Z,52.63
2022-11-04T12:56:38.229Z,52.21
2022-11-04T12:59:16.969Z,52.42
2022-11-04T13:02:25.266Z,52.31
2022-11-04T13:05:13.963Z,52.67
2022-11-04T13:07:46.676Z,52.43
2022-11-04T13:10:22.897Z,52.63
2022-11-04T13:12:51.945Z,52.61
2022-11-04T13:15:22.566Z,52.53
2022-11-04T13:18:08.374Z,52.32
2022-11-04T13:20:53.247Z,52.72
2022-11-04T13:23:28.567Z,52.68
2022-11-04T13:25:55.754Z,52.85
2022-11-04T13:28:23.082Z,52.36
2022-11-04T13:31:18.769Z,52.78
2022-11-04T13:33:54.931Z,52.62
2022-11-04T13:36:38.421Z,52.66
2022-11-04T13:39:14.719Z,52.43
2022-11-04T13:42:23.991Z,52.62
2022-11-04T13:44:53.880Z,52.66
2022-11-04T13:47:26.451Z,52.73
2022-11-04T13:49:58.575Z,52.89
2022-11-04T13:52:31.574Z,52.68
2022-11-04T13:55:00.665Z,52.85
2022-11-04T13:57:28.920Z,52.74
2022-11-04T14:00:13.551Z,52.78
2022-11-04T14:02:45.074Z,52.97
2022-11-04T14:05:29.990Z,52.71
2022-11-04T14:08:02.511Z,52.66
2022-11-04T14:10:38.430Z,52.98
2022-11-04T14:13:32.988Z,52.74
2022-11-04T14:16:10.326Z,52.66
2022-11-04T14:18:42.020Z,52.69
2022-11-04T14:21:10.820Z,52.88
2022-11-04T14:23:39.172Z,52.90
2022-11-04T14:26:08.346Z,53.49
2022-11-04T14:28:36.232Z,53.25
2022-11-04T14:31:06.197Z,53.42
2022-11-04T14:33:39.457Z,53.08
2022-11-04T14:36:21.346Z,53.57
2022-11-04T14:39:12.145Z,53.50
2022-11-04T14:41:41.630Z,53.46
2022-11-04T14:44:17.735Z,53.78
2022-11-04T14:46:45.931Z,53.86
2022-11-04T14:49:39.954Z,53.58
2022-11-04T14:52:16.773Z,53.83
2022-11-04T14:54:43.530Z,53.81
2022-11-04T14:57:20.846Z,53.82
2022-11-04T14:59:47.714Z,54.01
2022-11-04T15:02:18.973Z,54.32
2022-11-04T15:04:49.558Z,54.02
2022-11-04T15:07:31.463Z,53.91
2022-11-04T15:09:58.193Z,54.08
2022-11-04T15:12:43.495Z,54.32
2022-11-04T15:15:39.833Z,54.36
2022-11-04T15:18:09.127Z,54.85
2022-11-04T15:20:41.046Z,54.69
2022-11-04T15:23:12.778Z,54.78
2022-11-04T15:25:47.734Z,54.68
2022-11-04T15:28:35.637Z,54.99
2022-11-04T15:31:16.649Z,54.97
2022-11-04T15:33:51.238Z,55.03
2022-11-04T15:36:21.181Z,55.23
2022-11-04T15:38:52.777Z,54.90
2022-11-04T15:41:39.985Z,55.51
2022-11-04T15:44:20.205Z,55.41
2022-11-04T15:46:55.290Z,55.54
2022-11-04T15:49:29.749Z,55.68
2022-11-04T15:52:01.830Z,55.18
2022-11-04T15:54:34.241Z,55.34
2022-11-04T15:57:04.805Z,55.38
2022-11-04T15:59:32.267Z,55.67
2022-11-04T16:02:00.014Z,55.46
2022-11-04T16:04:28.094Z,55.78
2022-11-04T16:07:10.234Z,55.66
2022-11-04T16:10:09.350Z,55.76
2022-11-04T16:12:36.826Z,55.75
2022-11-04T16:15:04.646Z,56.02
2022-11-04T16:17:31.841Z,56.12
2022-11-04T16:20:04.147Z,56.18
2022-11-04T16:22:33.570Z,55.67
2022-11-04T16:25:04.211Z,56.22
2022-11-04T16:27:33.156Z,56.00
2022-11-04T16:30:16.458Z,56.02
2022-11-04T16:32:45.095Z,56.00
2022-11-04T16:35:18.132Z,55.96
2022-11-04T16:37:45.028Z,56.16
2022-11-04T16:40:12.537Z,56.33
2022-11-04T16:42:39.397Z,56.16
2022-11-04T16:45:07.312Z,56.45
2022-11-04T16:47:37.529Z,56.10
2022-11-04T16:50:12.854Z,56.63
2022-11-04T16:52:44.060Z,56.27
2022-11-04T16:55:12.379Z,56.56
2022-11-04T16:57:39.489Z,56.42
2022-11-04T17:00:07.077Z,56.41
2022-11-04T17:02:38.013Z,56.12
2022-11-04T17:05:05.431Z,56.74
2022-11-04T17:07:51.512Z,56.59
2022-11-04T17:10:21.303Z,56.34
2022-11-04T17:12:48.226Z,56.73
2022-11-04T17:15:16.045Z,56.52
2022-11-04T17:17:43.216Z,56.68
2022-11-04T17:20:15.382Z,56.23
2022-11-04T17:22:43.118Z,56.22
2022-11-04T17:25:19.093Z,56.71
2022-11-04T17:27:46.041Z,56.43
2022-11-04T17:30:14.327Z,56.24
2022-11-04T17:32:41.724Z,56.23
2022-11-04T17:35:09.019Z,56.25
2022-11-04T17:37:35.761Z,56.41
2022-11-04T17:40:02.411Z,56.59
2022-11-04T17:42:47.763Z,56.33
2022-11-04T17:45:14.466Z,56.22
2022-11-04T17:47:41.330Z,56.51
2022-11-04T17:50:08.673Z,56.63
2022-11-04T17:52:36.280Z,56.35
2022-11-04T17:55:05.080Z,56.57
2022-11-04T17:57:34.867Z,56.66
2022-11-04T18:00:05.435Z,56.31
2022-11-04T18:02:32.680Z,56.76
2022-11-04T18:05:01.744Z,56.67
2022-11-04T18:07:29.153Z,56.89
2022-11-04T18:09:56.424Z,56.79
2022-11-04T18:12:38.350Z,56.47
2022-11-04T18:15:08.734Z,56.89
2022-11-04T18:17:43.063Z,56.99
2022-11-04T18:20:13.861Z,57.04
2022-11-04T18:22:41.711Z,56.49
2022-11-04T18:25:09.024Z,56.78
2022-11-04T18:27:36.212Z,56.52
2022-11-04T18:30:03.034Z,56.89
2022-11-04T18:32:29.772Z,57.24
2022-11-04T18:34:56.478Z,56.84
2022-11-04T18:37:23.951Z,56.98
2022-11-04T18:39:50.664Z,56.94
2022-11-04T18:42:17.388Z,57.33
2022-11-04T18:44:44.047Z,57.19
2022-11-04T18:47:10.808Z,56.89
2022-11-04T18:49:37.450Z,56.59
2022-11-04T18:52:04.225Z,56.68
2022-11-04T18:54:30.981Z,56.87
2022-11-04T18:56:57.744Z,57.09
2022-11-04T18:59:24.382Z,57.24
2022-11-04T19:01:53.386Z,56.83
2022-11-04T19:04:20.262Z,57.08
2022-11-04T19:06:46.977Z,56.83
2022-11-04T19:12:20.860Z,56.88
2022-11-04T19:14:47.677Z,57.25
2022-11-04T19:17:14.959Z,57.20
2022-11-04T19:19:41.862Z,57.16
2022-11-04T19:22:09.059Z,57.02
2022-11-04T19:24:35.915Z,56.93
2022-11-04T19:27:02.590Z,57.49
2022-11-04T19:29:29.595Z,57.31
2022-11-04T19:31:56.310Z,56.98
2022-11-04T19:34:23.084Z,57.33
2022-11-04T19:36:49.916Z,57.00
2022-11-04T19:39:16.647Z,57.07
2022-11-04T19:42:02.366Z,57.05
2022-11-04T19:44:29.141Z,57.25
2022-11-04T19:46:55.854Z,57.15
2022-11-04T19:49:22.632Z,56.88
2022-11-04T19:51:49.321Z,57.37
2022-11-04T19:54:16.170Z,57.27
2022-11-04T19:56:42.829Z,56.97
2022-11-04T19:59:11.024Z,57.36
2022-11-04T20:01:37.779Z,57.39
2022-11-04T20:04:05.173Z,56.92
2022-11-04T20:06:33.074Z,56.84
2022-11-04T20:09:07.968Z,57.14
2022-11-04T20:11:56.684Z,57.35
2022-11-04T20:14:24.184Z,57.13
2022-11-04T20:16:50.855Z,57.07
2022-11-04T20:19:22.432Z,57.40
2022-11-04T20:21:49.829Z,57.26
2022-11-04T20:24:16.945Z,57.62
2022-11-04T20:26:44.236Z,57.70
2022-11-04T20:29:11.873Z,57.53
2022-11-04T20:31:39.572Z,57.46
2022-11-04T20:34:08.217Z,57.50
2022-11-04T20:36:36.077Z,57.74
2022-11-04T20:39:06.303Z,57.35
2022-11-04T20:41:33.445Z,57.29
2022-11-04T20:44:00.446Z,57.34
2022-11-04T20:46:29.739Z,57.11
2022-11-04T20:48:57.941Z,57.10
2022-11-04T20:51:30.161Z,57.31
2022-11-04T20:54:00.576Z,57.24
2022-11-04T20:56:28.708Z,57.23
2022-11-04T20:58:59.419Z,56.76
2022-11-04T21:01:29.315Z,56.70
2022-11-04T21:04:00.725Z,57.18
2022-11-04T21:06:28.270Z,57.12
2022-11-04T21:08:55.388Z,57.08
2022-11-04T21:11:22.096Z,56.98
2022-11-04T21:13:48.846Z,56.85
2022-11-04T21:16:17.200Z,57.03
2022-11-04T21:18:43.853Z,56.58
2022-11-04T21:21:13.515Z,56.84
2022-11-04T21:23:40.157Z,56.43
2022-11-04T21:26:08.274Z,56.77
2022-11-04T21:28:35.176Z,56.83
2022-11-04T21:31:08.488Z,56.50
2022-11-04T21:33:35.716Z,56.66
2022-11-04T21:36:06.825Z,56.33
2022-11-04T21:38:34.035Z,56.49
2022-11-04T21:41:10.196Z,56.63
2022-11-04T21:43:36.992Z,56.59
2022-11-04T21:46:09.141Z,56.25
2022-11-04T21:48:37.246Z,56.52
2022-11-04T21:51:12.244Z,56.51
2022-11-04T21:53:39.273Z,56.48
2022-11-04T21:56:18.185Z,56.65
2022-11-04T21:58:45.868Z,56.19
2022-11-04T22:01:15.657Z,56.32
2022-11-04T22:03:43.270Z,56.23
2022-11-04T22:06:12.415Z,56.40
2022-11-04T22:08:43.007Z,56.09
2022-11-04T22:11:10.571Z,55.88
2022-11-04T22:13:37.655Z,56.12
2022-11-04T22:16:12.401Z,56.03
2022-11-04T22:18:39.198Z,55.97
2022-11-04T22:21:08.794Z,55.89
2022-11-04T22:23:36.437Z,55.77
2022-11-04T22:26:05.449Z,56.37
2022-11-04T22:28:32.207Z,56.05
2022-11-04T22:31:06.374Z,55.93
2022-11-04T22:33:33.364Z,55.91
2022-11-04T22:36:00.073Z,55.84
2022-11-04T22:38:26.822Z,56.13
2022-11-04T22:40:57.265Z,55.86
2022-11-04T22:43:25.052Z,56.13
2022-11-04T22:45:53.677Z,55.89
2022-11-04T22:48:21.072Z,56.02
2022-11-04T22:50:54.276Z,56.21
2022-11-04T22:53:20.991Z,56.05
2022-11-04T22:55:47.649Z,55.82
2022-11-04T22:58:14.444Z,56.04
2022-11-04T23:00:41.102Z,55.72
2022-11-04T23:03:08.259Z,55.87
2022-11-04T23:05:35.228Z,55.93
2022-11-04T23:08:02.014Z,56.11
2022-11-04T23:10:48.208Z,55.73
2022-11-04T23:13:34.178Z,55.71
2022-11-04T23:16:19.386Z,55.78
2022-11-04T23:18:50.090Z,56.08
2022-11-04T23:21:39.138Z,56.00
2022-11-04T23:24:24.900Z,55.76
2022-11-04T23:26:51.893Z,55.64
2022-11-04T23:29:37.062Z,55.65
2022-11-04T23:32:04.134Z,55.66
2022-11-04T23:34:49.288Z,55.56
2022-11-04T23:37:16.113Z,55.63
2022-11-04T23:39:44.831Z,55.58
2022-11-04T23:42:16.547Z,55.54
2022-11-04T23:45:10.099Z,55.85
2022-11-04T23:47:59.498Z,55.70
2022-11-04T23:50:46.340Z,55.53
2022-11-04T23:53:33.243Z,55.50
2022-11-04T23:56:19.151Z,55.80
2022-11-04T23:59:05.096Z,56.00
